createdAt,value
2019-03-25T00:00:03.038Z,8.37
2019-03-25T00:10:03.042Z,8.31
2019-03-25T00:20:02.852Z,8.25
2019-03-25T00:30:03.150Z,8.16
2019-03-25T00:40:03.120Z,8.16
2019-03-25T00:50:03.049Z,8.17
2019-03-25T01:00:02.929Z,8.14
2019-03-25T01:10:02.822Z,8.18
2019-03-25T01:20:03.059Z,8.17
2019-03-25T01:30:03.283Z,8.20
2019-03-25T01:40:02.301Z,8.19
2019-03-25T01:50:02.168Z,8.24
2019-03-25T02:00:04.460Z,8.21
2019-03-25T02:10:02.212Z,8.26
2019-03-25T02:20:03.459Z,8.35
2019-03-25T02:30:02.826Z,8.19
2019-03-25T02:40:03.017Z,8.01
2019-03-25T03:00:02.881Z,7.78
2019-03-25T03:10:02.878Z,7.56
2019-03-25T03:20:02.788Z,7.50
2019-03-25T03:30:03.121Z,7.34
2019-03-25T03:40:02.950Z,7.27
2019-03-25T03:50:02.549Z,7.26
2019-03-25T04:00:03.531Z,7.26
2019-03-25T04:10:02.279Z,7.19
2019-03-25T04:20:02.327Z,7.07
2019-03-25T04:30:03.381Z,6.89
2019-03-25T04:40:03.591Z,6.78
2019-03-25T04:50:02.418Z,6.88
2019-03-25T05:00:03.865Z,6.89
2019-03-25T05:10:02.742Z,6.97
2019-03-25T05:20:02.797Z,6.99
2019-03-25T05:30:02.882Z,7.00
2019-03-25T05:40:03.183Z,7.00
2019-03-25T05:50:02.984Z,7.02
2019-03-25T06:00:03.007Z,7.02
2019-03-25T06:10:03.260Z,7.05
2019-03-25T06:20:02.373Z,7.10
2019-03-25T06:30:03.782Z,7.17
2019-03-25T06:40:03.071Z,7.29
2019-03-25T06:50:02.832Z,7.13
2019-03-25T07:00:03.034Z,7.01
2019-03-25T07:10:02.696Z,6.69
2019-03-25T07:20:02.539Z,6.62
2019-03-25T07:30:03.051Z,6.96
2019-03-25T07:40:02.594Z,7.15
2019-03-25T07:50:02.365Z,7.63
2019-03-25T08:00:13.040Z,7.60
2019-03-25T08:10:03.139Z,7.39
2019-03-25T08:20:02.976Z,7.98
2019-03-25T08:30:03.509Z,7.55
2019-03-25T08:40:02.712Z,7.63
2019-03-25T08:50:02.434Z,7.86
2019-03-25T09:00:03.760Z,7.93
2019-03-25T09:10:02.333Z,7.57
2019-03-25T09:20:02.218Z,7.56
2019-03-25T09:30:03.747Z,7.65
2019-03-25T09:40:02.261Z,7.59
2019-03-25T09:50:02.895Z,7.41
2019-03-25T10:00:03.791Z,7.17
2019-03-25T10:10:02.631Z,7.71
2019-03-25T10:20:02.561Z,7.89
2019-03-25T10:30:02.868Z,9.21
2019-03-25T10:40:03.187Z,8.63
2019-03-25T10:50:03.245Z,8.85
2019-03-25T11:00:03.895Z,9.55
2019-03-25T11:10:03.569Z,9.68
2019-03-25T11:20:02.759Z,10.08
2019-03-25T11:30:05.597Z,10.08
2019-03-25T11:40:03.489Z,9.38
2019-03-25T11:50:02.542Z,9.88
2019-03-25T12:00:08.772Z,10.59
2019-03-25T12:10:02.790Z,9.43
2019-03-25T12:20:02.955Z,8.85
2019-03-25T12:30:03.275Z,9.00
2019-03-25T12:40:02.366Z,8.81
2019-03-25T12:50:03.041Z,8.54
2019-03-25T13:00:03.664Z,8.06
2019-03-25T13:10:02.591Z,7.83
2019-03-25T13:20:02.533Z,7.01
2019-03-25T13:30:02.825Z,5.52
2019-03-25T13:40:03.456Z,6.93
2019-03-25T13:50:02.354Z,8.10
2019-03-25T14:00:03.901Z,7.73
2019-03-25T14:10:02.269Z,8.94
2019-03-25T14:20:03.207Z,7.93
2019-03-25T14:30:13.602Z,4.76
2019-03-25T14:40:02.490Z,3.52
2019-03-25T14:50:02.924Z,3.63
2019-03-25T15:00:03.452Z,4.24
2019-03-25T15:10:02.910Z,4.70
2019-03-25T15:20:02.687Z,5.23
2019-03-25T15:30:02.837Z,5.68
2019-03-25T15:40:03.060Z,6.46
2019-03-25T15:50:02.640Z,6.68
2019-03-25T16:00:03.410Z,6.52
2019-03-25T16:10:03.070Z,6.03
2019-03-25T16:20:02.876Z,5.83
2019-03-25T16:30:03.496Z,5.60
2019-03-25T16:40:03.249Z,5.54
2019-03-25T16:50:02.950Z,5.39
2019-03-25T17:00:03.060Z,3.70
2019-03-25T17:10:02.562Z,2.86
2019-03-25T17:20:02.731Z,3.24
2019-03-25T17:30:03.105Z,3.40
2019-03-25T17:40:03.099Z,3.53
2019-03-25T17:50:05.919Z,3.94
2019-03-25T18:00:02.810Z,4.25
2019-03-25T18:10:02.863Z,4.25
2019-03-25T18:20:03.092Z,4.33
2019-03-25T18:30:03.427Z,3.09
2019-03-25T18:40:02.288Z,2.29
2019-03-25T18:50:03.216Z,2.44
2019-03-25T19:00:03.443Z,2.68
2019-03-25T19:10:02.642Z,2.68
2019-03-25T19:20:02.593Z,2.74
2019-03-25T19:30:03.167Z,2.74
2019-03-25T19:40:02.923Z,2.67
2019-03-25T19:50:02.556Z,2.69
2019-03-25T20:00:03.404Z,2.77
2019-03-25T20:10:02.871Z,2.97
2019-03-25T20:20:03.124Z,3.09
2019-03-25T20:30:03.422Z,3.14
2019-03-25T20:40:02.505Z,3.12
2019-03-25T20:50:03.304Z,3.05
2019-03-25T21:00:02.991Z,3.00
2019-03-25T21:10:02.297Z,3.08
2019-03-25T21:20:02.342Z,3.12
2019-03-25T21:30:03.169Z,3.16
2019-03-25T21:40:02.992Z,3.12
2019-03-25T21:50:02.538Z,3.16
2019-03-25T22:00:03.570Z,3.09
2019-03-25T22:10:02.847Z,3.06
2019-03-25T22:20:02.845Z,2.97
2019-03-25T22:30:04.067Z,2.93
2019-03-25T22:40:02.577Z,2.78
2019-03-25T22:50:03.167Z,2.72
2019-03-25T23:00:03.019Z,2.63
2019-03-25T23:10:02.697Z,2.46
2019-03-25T23:20:02.451Z,2.32
2019-03-25T23:30:03.136Z,2.44
2019-03-25T23:40:02.483Z,2.52
2019-03-25T23:50:02.977Z,2.48
